Carouge, Switzerland
Current Conditions -  °F | °C
As of 5:20 PM on Tuesday 21 Oct 2014 (Local Time) from LSGG Reporting Station
Broken Clouds Broken Clouds  
Wind Chill: 66°   Ceiling: 5000
Heat Index: 66°   Visibility: 6mi
Dew Point: 54°   Wind: 15mph
Humidity: 64%   Direction: 200°SSW
Pressure: 29.94"   Gusts: NA
Location:  46.19°N, 6.13°E
Report Text: LSGG 211520Z 20013KT 9999 FEW040 BKN050 BKN070 19/12 Q1014 NOSIG
Loading
Personal Weather Stations






























Interactive Weather Map
Tropical Storm Tracking
New forecast layout! Learn more

10-Day Weather Forecast

Advertisements
Track Severe Weather on mobile